Etusivu
METAR-TAF:

METAR-TAF

Lentoasemat :

Taylorville Municipal Airport

Taylorville, Illinois, Yhdysvallat

Leveyspiiri: 39-32-03N, Pituuspiiri: 089-19-40W, korkeus merenpinnasta: 190 m

Tämänhetkinen sää

Tämä raportti tehtiin 18 minuuttia sitten, kello 04.55 UTC
Tuuli 9 kn lännestä/lounaasta
Lämpötila 0°C
Kosteus 80%
Ilmanpaine 1018 hPa
Näkyvyys: 16.1 km
Pilvistä 2300 ft:n korkeudessa

METAR: KTAZ 260455Z AUTO 25009KT 10SM OVC023 00/M03 A3005 RMK AO2 T10051030

Aika: 23:13 (05:13 UTC)


TAF: puuttuu

Säähavainnot ja -ennusteet yli 4000 lentoasemalta (METAR- ja TAF-raportit).

Käytössä olevat sääasemat on merkitty karttaan keltaisilla ja punaisilla pisteillä.

Aseta hiiri pisteen päälle nähdäksesi sääaseman nimen.

Klikkaa sitten nähdäksesi säähavainnot ja -ennusteet.

Kartan vaihtaminen: klikkaa mustalla rastilla varustettuja vihreitä pisteitä, niin voit zoomata sisään; viivalla varustettua vihreää pistettä, niin voit zoomata ulos tai vihreitä nuolia, niin pääset viereisille kartoille.


METAR-TAF: